Time;durP1;ratioP1;P1;durP2;ratioP2;P2;SDS_P1;SDS_P2;PMS_P1;PMS_P2;Temp;Humidity;BMP_temperature;BMP_pressure;BME280_temperature;BME280_humidity;BME280_pressure;Samples;Min_cycle;Max_cycle;Signal;HPM_P1;HPM_P2
2023/10/10 18:43:57;;;;;;;27.93;19.53;;;18.20;53.40;;;;;;5103469;27;20825;-85
2023/10/10 18:46:24;;;;;;;22.50;17.57;;;17.10;49.70;;;;;;5104683;28;20235;-83
2023/10/10 18:48:51;;;;;;;25.30;17.80;;;15.70;48.70;;;;;;5106063;28;20184;-82
2023/10/10 18:51:17;;;;;;;24.93;17.90;;;14.50;49.30;;;;;;5101997;28;20188;-82
2023/10/10 18:53:45;;;;;;;28.00;18.57;;;13.70;50.10;;;;;;5107342;28;20175;-82
2023/10/10 18:56:10;;;;;;;26.77;18.73;;;13.20;50.60;;;;;;5103227;28;20186;-82
2023/10/10 18:58:38;;;;;;;27.33;18.83;;;12.70;51.00;;;;;;5104550;28;20176;-82
2023/10/10 19:01:14;;;;;;;26.10;20.17;;;12.30;51.40;;;;;;5105538;28;20194;-84
2023/10/10 19:03:46;;;;;;;30.03;20.30;;;12.10;51.80;;;;;;5101156;28;20294;-81
2023/10/10 19:06:13;;;;;;;26.73;19.37;;;11.90;51.90;;;;;;5102156;28;20198;-83
2023/10/10 19:08:42;;;;;;;28.73;21.07;;;11.80;51.90;;;;;;5104018;28;20172;-83
2023/10/10 19:11:10;;;;;;;25.00;18.90;;;11.80;52.00;;;;;;5102042;28;20232;-83
2023/10/10 19:13:38;;;;;;;26.70;20.37;;;11.60;52.00;;;;;;5103748;28;20546;-83
2023/10/10 19:16:05;;;;;;;27.33;20.30;;;11.50;52.20;;;;;;5103846;28;20211;-82
2023/10/10 19:18:34;;;;;;;29.20;20.10;;;11.30;52.30;;;;;;5103388;28;20199;-83
2023/10/10 19:21:20;;;;;;;26.97;19.80;;;11.10;52.60;;;;;;5103487;28;20322;-82
2023/10/10 19:23:51;;;;;;;31.23;20.37;;;11.30;53.00;;;;;;5104960;28;20241;-81
2023/10/10 19:26:17;;;;;;;27.37;18.63;;;11.00;52.90;;;;;;5105352;28;20191;-83
2023/10/10 19:28:45;;;;;;;25.90;19.17;;;10.90;53.00;;;;;;5100356;28;20185;-83
2023/10/10 19:31:14;;;;;;;24.87;18.50;;;11.00;53.20;;;;;;5105463;28;20540;-83
2023/10/10 19:33:39;;;;;;;28.97;20.40;;;10.80;53.20;;;;;;5104073;28;20183;-83
2023/10/10 19:36:07;;;;;;;32.23;22.53;;;10.80;53.20;;;;;;5103026;28;20191;-82
2023/10/10 19:38:34;;;;;;;30.20;20.77;;;10.80;53.20;;;;;;5101868;28;20179;-82
2023/10/10 19:41:04;;;;;;;28.60;20.77;;;10.70;53.30;;;;;;5105280;28;20188;-83
2023/10/10 19:43:30;;;;;;;31.13;20.70;;;10.70;53.50;;;;;;5100757;28;20576;-84
2023/10/10 19:45:55;;;;;;;32.20;22.03;;;10.60;53.40;;;;;;5106003;28;20186;-83
2023/10/10 19:48:27;;;;;;;34.93;22.90;;;10.60;53.80;;;;;;5103476;28;20253;-83
2023/10/10 19:51:18;;;;;;;36.20;24.33;;;10.60;53.80;;;;;;5102564;28;20517;-81
2023/10/10 19:53:44;;;;;;;33.73;23.43;;;10.60;53.80;;;;;;5097354;28;20204;-82
2023/10/10 19:56:13;;;;;;;39.63;24.87;;;10.60;53.80;;;;;;5088809;28;20188;-82
2023/10/10 19:58:45;;;;;;;36.87;24.37;;;10.60;53.90;;;;;;5089221;28;20268;-81
2023/10/10 20:01:12;;;;;;;36.83;24.93;;;10.50;53.90;;;;;;5089742;28;20184;-83
2023/10/10 20:03:42;;;;;;;44.63;26.13;;;10.50;54.00;;;;;;5090317;28;20211;-81
2023/10/10 20:06:19;;;;;;;44.17;26.33;;;10.70;54.10;;;;;;5090404;28;20176;-82
2023/10/10 20:08:45;;;;;;;43.33;27.33;;;10.50;54.10;;;;;;5098744;28;20173;-81
2023/10/10 20:11:11;;;;;;;37.13;25.37;;;10.50;54.10;;;;;;5090338;28;20194;-83
2023/10/10 20:13:39;;;;;;;41.93;26.27;;;10.50;54.20;;;;;;5089178;28;20653;-82
2023/10/10 20:16:16;;;;;;;42.87;25.87;;;10.40;54.30;;;;;;5090491;28;20265;-81
2023/10/10 20:18:45;;;;;;;42.40;25.77;;;10.40;54.50;;;;;;5085863;28;20266;-83
2023/10/10 20:21:15;;;;;;;37.70;25.43;;;10.60;54.60;;;;;;5089416;28;20168;-81
2023/10/10 20:23:42;;;;;;;39.60;26.27;;;10.40;54.60;;;;;;5091888;28;20196;-83
2023/10/10 20:26:15;;;;;;;42.27;27.53;;;10.50;54.70;;;;;;5090521;28;20719;-82
2023/10/10 20:28:43;;;;;;;38.53;25.43;;;10.40;54.70;;;;;;5090723;28;20173;-81
2023/10/10 20:31:13;;;;;;;36.77;24.50;;;10.50;54.90;;;;;;5091735;28;20184;-81
2023/10/10 20:33:38;;;;;;;40.07;24.20;;;10.50;54.90;;;;;;5090271;28;20651;-84
2023/10/10 20:36:05;;;;;;;30.73;22.23;;;10.60;54.90;;;;;;5078328;28;20177;-83
2023/10/10 20:38:31;;;;;;;30.90;21.47;;;10.50;54.90;;;;;;5087164;28;20741;-82
2023/10/10 20:41:01;;;;;;;32.13;21.70;;;10.40;55.10;;;;;;5086336;28;20223;-83
2023/10/10 20:43:27;;;;;;;30.63;21.27;;;10.40;55.30;;;;;;5080717;28;20319;-82
2023/10/10 20:45:53;;;;;;;29.07;21.27;;;10.50;55.30;;;;;;5092459;28;20701;-81
2023/10/10 20:48:21;;;;;;;30.53;20.33;;;10.50;55.40;;;;;;5089302;28;20188;-83
2023/10/10 20:50:48;;;;;;;29.13;19.40;;;10.50;55.60;;;;;;5091670;28;20184;-82
2023/10/10 20:53:14;;;;;;;26.30;19.47;;;10.50;56.20;;;;;;5082472;28;20196;-81
2023/10/10 20:55:46;;;;;;;26.70;18.33;;;10.60;55.80;;;;;;5079528;28;20219;-81
2023/10/10 20:58:13;;;;;;;26.43;17.90;;;10.70;55.90;;;;;;5091214;28;20586;-83
2023/10/10 21:00:39;;;;;;;23.77;18.13;;;10.70;56.00;;;;;;5088964;28;20260;-80
2023/10/10 21:03:08;;;;;;;29.33;18.70;;;10.80;56.20;;;;;;5088918;28;20184;-81
2023/10/10 21:05:35;;;;;;;26.83;19.33;;;10.90;56.40;;;;;;5085601;28;20176;-83
2023/10/10 21:08:02;;;;;;;30.77;19.87;;;11.00;56.50;;;;;;5087061;28;20276;-83
2023/10/10 21:10:31;;;;;;;27.87;18.57;;;11.10;56.60;;;;;;5094066;28;20192;-82
2023/10/10 21:12:57;;;;;;;26.50;19.30;;;11.40;56.80;;;;;;5104590;28;20192;-83
2023/10/10 21:15:23;;;;;;;24.73;19.13;;;11.40;56.70;;;;;;5093593;28;20169;-81
2023/10/10 21:17:51;;;;;;;24.37;18.67;;;11.40;56.60;;;;;;5093913;28;20661;-82
2023/10/10 21:20:25;;;;;;;26.50;18.07;;;11.50;56.60;;;;;;5081523;28;20199;-81
2023/10/10 21:22:52;;;;;;;26.97;17.33;;;11.60;56.70;;;;;;5083967;28;20207;-81
2023/10/10 21:25:18;;;;;;;23.17;16.47;;;11.80;56.80;;;;;;5086168;28;20636;-81
2023/10/10 21:27:45;;;;;;;22.63;16.83;;;11.80;56.70;;;;;;5096158;28;20185;-82
2023/10/10 21:30:12;;;;;;;23.10;17.43;;;11.80;56.60;;;;;;5106375;28;20255;-81
2023/10/10 21:32:38;;;;;;;26.40;16.73;;;11.80;56.70;;;;;;5086936;28;20682;-83
2023/10/10 21:35:08;;;;;;;22.73;16.27;;;11.90;56.80;;;;;;5093011;28;20184;-82
2023/10/10 21:37:38;;;;;;;20.23;16.33;;;11.90;56.80;;;;;;5099082;28;20184;-82
2023/10/10 21:40:12;;;;;;;21.47;15.70;;;11.90;56.90;;;;;;5092979;28;20176;-82
2023/10/10 21:42:44;;;;;;;22.60;16.53;;;12.00;57.00;;;;;;5104415;28;20236;-82
2023/10/10 21:45:10;;;;;;;20.93;15.53;;;12.10;56.90;;;;;;5098000;28;20217;-81
2023/10/10 21:47:37;;;;;;;20.83;16.70;;;12.10;56.80;;;;;;5100192;28;20827;-83
2023/10/10 21:50:09;;;;;;;20.17;15.67;;;12.10;56.80;;;;;;5089650;28;20587;-83
2023/10/10 21:52:43;;;;;;;18.87;15.87;;;12.10;56.90;;;;;;5094550;28;20192;-82
2023/10/10 21:55:10;;;;;;;24.10;17.40;;;12.20;56.80;;;;;;5099181;28;20176;-83
2023/10/10 21:57:38;;;;;;;25.50;17.80;;;12.30;56.90;;;;;;5095955;28;20189;-81
2023/10/10 22:00:19;;;;;;;21.90;16.63;;;12.30;56.80;;;;;;5086108;28;20259;-83
2023/10/10 22:02:49;;;;;;;21.70;16.10;;;12.30;56.80;;;;;;5080620;28;20219;-82
2023/10/10 22:05:18;;;;;;;21.20;16.63;;;12.30;56.80;;;;;;5100353;28;20215;-83
2023/10/10 22:07:45;;;;;;;21.27;16.13;;;12.40;56.80;;;;;;5100030;28;20192;-83
2023/10/10 22:10:15;;;;;;;25.37;16.73;;;12.50;56.80;;;;;;5089229;28;20681;-81
2023/10/10 22:12:46;;;;;;;24.10;17.10;;;12.60;56.80;;;;;;5091851;28;20180;-83
2023/10/10 22:15:12;;;;;;;22.47;16.23;;;12.60;56.60;;;;;;5093335;28;20175;-82
2023/10/10 22:17:42;;;;;;;22.80;16.13;;;12.70;56.60;;;;;;5095032;28;20180;-84
2023/10/10 22:20:10;;;;;;;21.43;16.07;;;12.70;56.60;;;;;;5090863;28;20196;-84
2023/10/10 22:22:40;;;;;;;21.87;15.93;;;12.70;56.60;;;;;;5107335;27;20499;-83
2023/10/10 22:25:10;;;;;;;21.03;17.00;;;12.80;56.60;;;;;;5089150;28;20195;-82
2023/10/10 22:27:40;;;;;;;23.60;17.13;;;12.80;56.50;;;;;;5072063;28;20310;-82
2023/10/10 22:30:08;;;;;;;22.13;17.10;;;12.80;56.50;;;;;;5089574;28;20172;-82
2023/10/10 22:32:36;;;;;;;24.00;17.63;;;12.80;56.50;;;;;;5086448;28;20188;-81
2023/10/10 22:35:05;;;;;;;25.67;18.53;;;12.90;56.40;;;;;;5083812;28;20188;-82
2023/10/10 22:37:31;;;;;;;22.67;17.53;;;12.90;56.40;;;;;;5087449;28;20180;-83
2023/10/10 22:39:57;;;;;;;20.30;16.13;;;12.90;56.40;;;;;;5073854;28;20208;-82
2023/10/10 22:42:23;;;;;;;22.63;17.00;;;12.90;56.40;;;;;;5080191;28;20231;-83
2023/10/10 22:44:49;;;;;;;20.40;16.83;;;12.90;56.30;;;;;;5090025;28;20175;-84
2023/10/10 22:47:15;;;;;;;23.57;17.00;;;13.00;56.40;;;;;;5089233;28;20536;-83
2023/10/10 22:49:44;;;;;;;23.33;17.73;;;13.00;56.30;;;;;;5083841;28;20271;-85
2023/10/10 22:52:10;;;;;;;22.43;17.13;;;13.00;56.50;;;;;;5072061;28;20189;-84
2023/10/10 22:54:36;;;;;;;22.33;17.57;;;13.00;56.50;;;;;;5072014;28;20187;-85
2023/10/10 22:57:06;;;;;;;23.93;17.53;;;13.00;56.50;;;;;;5072550;28;20267;-84
2023/10/10 22:59:36;;;;;;;30.03;19.37;;;13.00;56.60;;;;;;5076457;28;20185;-83
2023/10/10 23:02:03;;;;;;;23.13;17.57;;;13.00;56.70;;;;;;5079410;28;20212;-85
2023/10/10 23:04:28;;;;;;;22.80;17.40;;;13.00;56.70;;;;;;5084335;28;20177;-85
2023/10/10 23:06:54;;;;;;;25.50;17.60;;;13.00;56.70;;;;;;5087939;28;20703;-84
2023/10/10 23:09:20;;;;;;;24.43;18.17;;;13.00;56.70;;;;;;5086149;28;20790;-83
2023/10/10 23:11:46;;;;;;;25.63;18.40;;;13.10;56.90;;;;;;5078371;28;20188;-85
2023/10/10 23:14:12;;;;;;;27.07;18.77;;;13.00;56.80;;;;;;5078307;28;20545;-83
2023/10/10 23:16:40;;;;;;;23.07;17.83;;;13.00;56.80;;;;;;5084534;28;20180;-83
2023/10/10 23:19:05;;;;;;;27.67;18.90;;;13.10;57.00;;;;;;5083779;28;20228;-83
2023/10/10 23:21:32;;;;;;;22.53;18.10;;;13.10;56.90;;;;;;5087228;28;20260;-85
2023/10/10 23:23:58;;;;;;;25.37;17.93;;;13.00;56.90;;;;;;5075488;28;20213;-83
2023/10/10 23:26:25;;;;;;;25.20;19.20;;;13.00;56.90;;;;;;5073520;28;20651;-83
2023/10/10 23:28:53;;;;;;;26.33;18.67;;;13.00;57.00;;;;;;5075293;28;20180;-83
2023/10/10 23:31:19;;;;;;;25.80;19.33;;;13.10;57.10;;;;;;5091911;28;20179;-83
2023/10/10 23:33:45;;;;;;;26.47;19.73;;;13.00;56.90;;;;;;5092804;28;20196;-84
2023/10/10 23:36:11;;;;;;;27.27;19.87;;;13.00;57.00;;;;;;5079493;28;20219;-82
2023/10/10 23:38:40;;;;;;;25.37;19.30;;;12.90;56.90;;;;;;5086932;28;20180;-83
2023/10/10 23:41:06;;;;;;;29.20;20.40;;;12.90;57.20;;;;;;5087726;28;20188;-83
2023/10/10 23:43:36;;;;;;;27.23;20.50;;;12.80;57.00;;;;;;5079832;28;20235;-83
2023/10/10 23:46:05;;;;;;;29.97;20.73;;;12.80;57.10;;;;;;5091375;28;20210;-83
2023/10/10 23:48:31;;;;;;;27.80;20.60;;;12.70;57.10;;;;;;5106542;28;20620;-83
2023/10/10 23:50:57;;;;;;;28.13;20.27;;;12.70;57.20;;;;;;5078852;28;20181;-83
2023/10/10 23:53:23;;;;;;;26.47;19.10;;;12.60;57.20;;;;;;5086583;28;20632;-83
2023/10/10 23:55:54;;;;;;;28.20;19.83;;;12.60;57.40;;;;;;5089536;28;20223;-83
2023/10/10 23:58:21;;;;;;;25.23;19.97;;;12.60;57.40;;;;;;5076810;28;20581;-83
